sensor_id;sensor_type;location;lat;lon;timestamp;temperature;humidity
18779;DHT22;9518;51.720;14.384;2023-12-29T00:00:26;7.00;99.90
18779;DHT22;9518;51.720;14.384;2023-12-29T00:02:53;6.90;99.90
18779;DHT22;9518;51.720;14.384;2023-12-29T00:05:20;7.10;99.90
18779;DHT22;9518;51.720;14.384;2023-12-29T00:07:48;7.20;99.90
18779;DHT22;9518;51.720;14.384;2023-12-29T00:10:15;7.20;99.90
18779;DHT22;9518;51.720;14.384;2023-12-29T00:12:42;7.20;89.80
18779;DHT22;9518;51.720;14.384;2023-12-29T00:15:11;7.10;99.90
18779;DHT22;9518;51.720;14.384;2023-12-29T00:17:38;7.20;54.70
18779;DHT22;9518;51.720;14.384;2023-12-29T00:20:07;7.20;1.00
18779;DHT22;9518;51.720;14.384;2023-12-29T00:22:34;7.30;1.00
18779;DHT22;9518;51.720;14.384;2023-12-29T00:25:01;7.30;1.00
18779;DHT22;9518;51.720;14.384;2023-12-29T00:27:28;7.10;1.00
18779;DHT22;9518;51.720;14.384;2023-12-29T00:29:55;7.10;30.50
18779;DHT22;9518;51.720;14.384;2023-12-29T00:32:24;7.10;93.80
18779;DHT22;9518;51.720;14.384;2023-12-29T00:34:51;7.00;76.20
18779;DHT22;9518;51.720;14.384;2023-12-29T00:37:19;7.00;99.90
18779;DHT22;9518;51.720;14.384;2023-12-29T00:39:47;7.10;73.60
18779;DHT22;9518;51.720;14.384;2023-12-29T00:42:14;7.20;21.20
18779;DHT22;9518;51.720;14.384;2023-12-29T00:44:41;7.10;46.70
18779;DHT22;9518;51.720;14.384;2023-12-29T00:47:08;7.20;13.90
18779;DHT22;9518;51.720;14.384;2023-12-29T00:49:40;7.10;71.50
18779;DHT22;9518;51.720;14.384;2023-12-29T00:52:08;7.10;80.80
18779;DHT22;9518;51.720;14.384;2023-12-29T00:54:35;6.90;99.90
18779;DHT22;9518;51.720;14.384;2023-12-29T00:57:03;6.80;99.90
18779;DHT22;9518;51.720;14.384;2023-12-29T00:59:30;6.80;99.90
18779;DHT22;9518;51.720;14.384;2023-12-29T01:01:58;6.90;99.90
18779;DHT22;9518;51.720;14.384;2023-12-29T01:04:25;6.80;99.90
18779;DHT22;9518;51.720;14.384;2023-12-29T01:06:57;6.70;99.90
18779;DHT22;9518;51.720;14.384;2023-12-29T01:09:24;6.80;99.90
18779;DHT22;9518;51.720;14.384;2023-12-29T01:11:51;6.80;99.90
18779;DHT22;9518;51.720;14.384;2023-12-29T01:14:18;6.70;99.90
18779;DHT22;9518;51.720;14.384;2023-12-29T01:16:45;6.70;99.90
18779;DHT22;9518;51.720;14.384;2023-12-29T01:19:12;6.60;99.90
18779;DHT22;9518;51.720;14.384;2023-12-29T01:21:41;6.60;99.90
18779;DHT22;9518;51.720;14.384;2023-12-29T01:24:09;6.70;99.90
18779;DHT22;9518;51.720;14.384;2023-12-29T01:26:39;6.60;99.90
18779;DHT22;9518;51.720;14.384;2023-12-29T01:29:06;6.60;99.90
18779;DHT22;9518;51.720;14.384;2023-12-29T01:31:33;6.70;99.90
18779;DHT22;9518;51.720;14.384;2023-12-29T01:34:00;6.90;99.90
18779;DHT22;9518;51.720;14.384;2023-12-29T01:36:27;6.90;99.90
18779;DHT22;9518;51.720;14.384;2023-12-29T01:38:56;6.80;99.90
18779;DHT22;9518;51.720;14.384;2023-12-29T01:41:24;6.80;99.90
18779;DHT22;9518;51.720;14.384;2023-12-29T01:44:19;6.80;99.90
18779;DHT22;9518;51.720;14.384;2023-12-29T01:46:50;6.90;28.30
18779;DHT22;9518;51.720;14.384;2023-12-29T01:49:19;6.80;70.40
18779;DHT22;9518;51.720;14.384;2023-12-29T01:51:49;6.80;41.60
18779;DHT22;9518;51.720;14.384;2023-12-29T01:54:18;6.90;17.40
18779;DHT22;9518;51.720;14.384;2023-12-29T01:56:48;6.90;1.00
18779;DHT22;9518;51.720;14.384;2023-12-29T01:59:18;7.00;1.00
18779;DHT22;9518;51.720;14.384;2023-12-29T02:01:46;6.90;1.00
18779;DHT22;9518;51.720;14.384;2023-12-29T02:04:15;6.90;1.00
18779;DHT22;9518;51.720;14.384;2023-12-29T02:06:44;6.90;11.60
18779;DHT22;9518;51.720;14.384;2023-12-29T02:09:11;6.90;40.50
18779;DHT22;9518;51.720;14.384;2023-12-29T02:11:39;6.90;1.00
18779;DHT22;9518;51.720;14.384;2023-12-29T02:14:08;6.90;1.00
18779;DHT22;9518;51.720;14.384;2023-12-29T02:16:40;7.00;1.00
18779;DHT22;9518;51.720;14.384;2023-12-29T02:19:20;6.90;6.00
18779;DHT22;9518;51.720;14.384;2023-12-29T02:21:51;6.80;57.90
18779;DHT22;9518;51.720;14.384;2023-12-29T02:24:18;6.70;99.90
18779;DHT22;9518;51.720;14.384;2023-12-29T02:26:52;6.80;90.40
18779;DHT22;9518;51.720;14.384;2023-12-29T02:29:23;6.90;1.00
18779;DHT22;9518;51.720;14.384;2023-12-29T02:31:54;6.80;73.60
18779;DHT22;9518;51.720;14.384;2023-12-29T02:34:25;6.80;98.80
18779;DHT22;9518;51.720;14.384;2023-12-29T02:36:53;6.90;76.00
18779;DHT22;9518;51.720;14.384;2023-12-29T02:39:21;6.90;1.00
18779;DHT22;9518;51.720;14.384;2023-12-29T02:41:50;6.80;24.50
18779;DHT22;9518;51.720;14.384;2023-12-29T02:44:17;6.70;99.90
18779;DHT22;9518;51.720;14.384;2023-12-29T02:46:44;6.80;99.90
18779;DHT22;9518;51.720;14.384;2023-12-29T02:49:11;6.70;99.90
18779;DHT22;9518;51.720;14.384;2023-12-29T02:51:41;6.70;99.90
18779;DHT22;9518;51.720;14.384;2023-12-29T02:54:11;6.60;99.90
18779;DHT22;9518;51.720;14.384;2023-12-29T02:56:38;6.60;99.90
18779;DHT22;9518;51.720;14.384;2023-12-29T02:59:07;6.60;99.90
18779;DHT22;9518;51.720;14.384;2023-12-29T03:01:34;6.60;99.90
18779;DHT22;9518;51.720;14.384;2023-12-29T03:04:01;6.70;99.90
18779;DHT22;9518;51.720;14.384;2023-12-29T03:06:28;6.70;99.90
18779;DHT22;9518;51.720;14.384;2023-12-29T03:08:55;6.70;99.90
18779;DHT22;9518;51.720;14.384;2023-12-29T03:11:22;6.80;99.90
18779;DHT22;9518;51.720;14.384;2023-12-29T03:13:49;6.80;99.90
18779;DHT22;9518;51.720;14.384;2023-12-29T03:16:20;6.80;99.90
18779;DHT22;9518;51.720;14.384;2023-12-29T03:18:47;6.80;99.90
18779;DHT22;9518;51.720;14.384;2023-12-29T03:21:14;6.80;99.90
18779;DHT22;9518;51.720;14.384;2023-12-29T03:23:41;6.90;99.90
18779;DHT22;9518;51.720;14.384;2023-12-29T03:26:09;6.90;99.90
18779;DHT22;9518;51.720;14.384;2023-12-29T03:28:36;6.80;99.90
18779;DHT22;9518;51.720;14.384;2023-12-29T03:31:03;6.90;99.90
18779;DHT22;9518;51.720;14.384;2023-12-29T03:33:33;7.00;93.90
18779;DHT22;9518;51.720;14.384;2023-12-29T03:36:00;7.00;86.60
18779;DHT22;9518;51.720;14.384;2023-12-29T03:38:27;7.00;90.40
18779;DHT22;9518;51.720;14.384;2023-12-29T03:40:54;6.90;42.80
18779;DHT22;9518;51.720;14.384;2023-12-29T03:43:21;6.90;98.60
18779;DHT22;9518;51.720;14.384;2023-12-29T03:45:48;7.10;1.00
18779;DHT22;9518;51.720;14.384;2023-12-29T03:48:15;7.10;1.00
18779;DHT22;9518;51.720;14.384;2023-12-29T03:50:44;7.20;1.00
18779;DHT22;9518;51.720;14.384;2023-12-29T03:53:11;7.30;1.00
18779;DHT22;9518;51.720;14.384;2023-12-29T03:55:40;7.30;1.00
18779;DHT22;9518;51.720;14.384;2023-12-29T03:58:07;7.40;1.00
18779;DHT22;9518;51.720;14.384;2023-12-29T04:00:35;7.50;1.00
18779;DHT22;9518;51.720;14.384;2023-12-29T04:03:03;7.60;1.00
18779;DHT22;9518;51.720;14.384;2023-12-29T04:05:30;7.60;1.00
18779;DHT22;9518;51.720;14.384;2023-12-29T04:07:59;7.50;1.00
18779;DHT22;9518;51.720;14.384;2023-12-29T04:10:26;7.60;1.00
18779;DHT22;9518;51.720;14.384;2023-12-29T04:12:54;7.60;1.00
18779;DHT22;9518;51.720;14.384;2023-12-29T04:15:21;7.70;1.00
18779;DHT22;9518;51.720;14.384;2023-12-29T04:17:49;7.70;1.00
18779;DHT22;9518;51.720;14.384;2023-12-29T04:20:16;7.60;1.00
18779;DHT22;9518;51.720;14.384;2023-12-29T04:22:43;7.60;1.00
18779;DHT22;9518;51.720;14.384;2023-12-29T04:25:12;7.40;1.00
18779;DHT22;9518;51.720;14.384;2023-12-29T04:27:39;7.40;1.00
18779;DHT22;9518;51.720;14.384;2023-12-29T04:30:07;7.30;1.00
18779;DHT22;9518;51.720;14.384;2023-12-29T04:32:34;7.20;1.00
18779;DHT22;9518;51.720;14.384;2023-12-29T04:35:08;7.10;1.00
18779;DHT22;9518;51.720;14.384;2023-12-29T04:37:38;7.00;1.00
18779;DHT22;9518;51.720;14.384;2023-12-29T04:40:06;6.90;1.00
18779;DHT22;9518;51.720;14.384;2023-12-29T04:42:35;7.00;1.00
18779;DHT22;9518;51.720;14.384;2023-12-29T04:45:02;7.00;1.00
18779;DHT22;9518;51.720;14.384;2023-12-29T04:47:29;7.00;1.00
18779;DHT22;9518;51.720;14.384;2023-12-29T04:49:57;7.10;1.00
18779;DHT22;9518;51.720;14.384;2023-12-29T04:52:29;7.20;1.00
18779;DHT22;9518;51.720;14.384;2023-12-29T04:54:59;7.30;1.00
18779;DHT22;9518;51.720;14.384;2023-12-29T04:57:26;7.20;1.00
18779;DHT22;9518;51.720;14.384;2023-12-29T04:59:55;7.30;1.00
18779;DHT22;9518;51.720;14.384;2023-12-29T05:02:22;7.30;1.00
18779;DHT22;9518;51.720;14.384;2023-12-29T05:04:49;7.40;1.00
18779;DHT22;9518;51.720;14.384;2023-12-29T05:07:16;7.40;1.00
18779;DHT22;9518;51.720;14.384;2023-12-29T05:09:46;7.30;1.00
18779;DHT22;9518;51.720;14.384;2023-12-29T05:12:14;7.40;1.00
18779;DHT22;9518;51.720;14.384;2023-12-29T05:14:41;7.40;1.00
18779;DHT22;9518;51.720;14.384;2023-12-29T05:17:09;7.30;1.00
18779;DHT22;9518;51.720;14.384;2023-12-29T05:19:36;7.30;1.00
18779;DHT22;9518;51.720;14.384;2023-12-29T05:22:03;7.40;1.00
18779;DHT22;9518;51.720;14.384;2023-12-29T05:24:30;7.30;1.00
18779;DHT22;9518;51.720;14.384;2023-12-29T05:26:57;7.40;1.00
18779;DHT22;9518;51.720;14.384;2023-12-29T05:29:25;7.60;1.00
18779;DHT22;9518;51.720;14.384;2023-12-29T05:32:01;7.70;1.00
18779;DHT22;9518;51.720;14.384;2023-12-29T05:34:30;7.70;1.00
18779;DHT22;9518;51.720;14.384;2023-12-29T05:36:57;7.90;1.00
18779;DHT22;9518;51.720;14.384;2023-12-29T05:39:24;7.80;1.00
18779;DHT22;9518;51.720;14.384;2023-12-29T05:41:52;7.70;1.00
18779;DHT22;9518;51.720;14.384;2023-12-29T05:44:19;7.70;1.00
18779;DHT22;9518;51.720;14.384;2023-12-29T05:46:47;7.70;1.00
18779;DHT22;9518;51.720;14.384;2023-12-29T05:49:14;7.50;1.00
18779;DHT22;9518;51.720;14.384;2023-12-29T05:51:43;7.50;1.00
18779;DHT22;9518;51.720;14.384;2023-12-29T05:54:10;7.60;1.00
18779;DHT22;9518;51.720;14.384;2023-12-29T05:56:40;7.50;1.00
18779;DHT22;9518;51.720;14.384;2023-12-29T05:59:07;7.40;1.00
18779;DHT22;9518;51.720;14.384;2023-12-29T06:01:34;7.30;1.00
18779;DHT22;9518;51.720;14.384;2023-12-29T06:04:02;7.30;1.00
18779;DHT22;9518;51.720;14.384;2023-12-29T06:06:29;7.40;1.00
18779;DHT22;9518;51.720;14.384;2023-12-29T06:08:58;7.60;1.00
18779;DHT22;9518;51.720;14.384;2023-12-29T06:11:27;7.60;1.00
18779;DHT22;9518;51.720;14.384;2023-12-29T06:13:55;7.70;1.00
18779;DHT22;9518;51.720;14.384;2023-12-29T06:16:22;7.60;1.00
18779;DHT22;9518;51.720;14.384;2023-12-29T06:18:51;7.50;1.00
18779;DHT22;9518;51.720;14.384;2023-12-29T06:21:18;7.50;1.00
18779;DHT22;9518;51.720;14.384;2023-12-29T06:23:46;7.50;1.00
18779;DHT22;9518;51.720;14.384;2023-12-29T06:26:18;7.40;1.00
18779;DHT22;9518;51.720;14.384;2023-12-29T06:28:46;7.50;1.00
18779;DHT22;9518;51.720;14.384;2023-12-29T06:31:14;7.40;1.00
18779;DHT22;9518;51.720;14.384;2023-12-29T06:33:41;7.50;1.00
18779;DHT22;9518;51.720;14.384;2023-12-29T06:36:09;7.50;1.00
18779;DHT22;9518;51.720;14.384;2023-12-29T06:38:36;7.60;1.00
18779;DHT22;9518;51.720;14.384;2023-12-29T06:41:04;7.60;1.00
18779;DHT22;9518;51.720;14.384;2023-12-29T06:43:33;7.60;1.00
18779;DHT22;9518;51.720;14.384;2023-12-29T06:46:00;7.60;1.00
18779;DHT22;9518;51.720;14.384;2023-12-29T06:48:28;7.70;1.00
18779;DHT22;9518;51.720;14.384;2023-12-29T06:50:55;7.80;1.00
18779;DHT22;9518;51.720;14.384;2023-12-29T06:53:22;7.70;1.00
18779;DHT22;9518;51.720;14.384;2023-12-29T06:56:01;7.80;1.00
18779;DHT22;9518;51.720;14.384;2023-12-29T06:58:32;7.80;1.00
18779;DHT22;9518;51.720;14.384;2023-12-29T07:00:59;7.80;1.00
18779;DHT22;9518;51.720;14.384;2023-12-29T07:03:27;7.80;1.00
18779;DHT22;9518;51.720;14.384;2023-12-29T07:05:56;7.90;1.00
18779;DHT22;9518;51.720;14.384;2023-12-29T07:08:24;7.80;1.00
18779;DHT22;9518;51.720;14.384;2023-12-29T07:10:51;7.80;1.00
18779;DHT22;9518;51.720;14.384;2023-12-29T07:13:19;7.80;1.00
18779;DHT22;9518;51.720;14.384;2023-12-29T07:15:48;7.80;1.00
18779;DHT22;9518;51.720;14.384;2023-12-29T07:18:15;7.70;1.00
18779;DHT22;9518;51.720;14.384;2023-12-29T07:20:43;7.70;1.00
18779;DHT22;9518;51.720;14.384;2023-12-29T07:23:10;7.80;1.00
18779;DHT22;9518;51.720;14.384;2023-12-29T07:25:40;8.00;1.00
18779;DHT22;9518;51.720;14.384;2023-12-29T07:28:07;8.00;1.00
18779;DHT22;9518;51.720;14.384;2023-12-29T07:30:34;8.20;1.00
18779;DHT22;9518;51.720;14.384;2023-12-29T07:33:02;8.30;1.00
18779;DHT22;9518;51.720;14.384;2023-12-29T07:35:30;8.30;1.00
18779;DHT22;9518;51.720;14.384;2023-12-29T07:37:57;8.20;1.00
18779;DHT22;9518;51.720;14.384;2023-12-29T07:40:24;8.20;1.00
18779;DHT22;9518;51.720;14.384;2023-12-29T07:42:55;8.20;1.00
18779;DHT22;9518;51.720;14.384;2023-12-29T07:45:22;8.30;1.00
18779;DHT22;9518;51.720;14.384;2023-12-29T07:47:50;8.40;1.00
18779;DHT22;9518;51.720;14.384;2023-12-29T07:50:19;8.50;1.00
18779;DHT22;9518;51.720;14.384;2023-12-29T07:52:46;8.50;1.00
18779;DHT22;9518;51.720;14.384;2023-12-29T07:55:13;8.40;1.00
18779;DHT22;9518;51.720;14.384;2023-12-29T07:57:42;8.40;1.00
18779;DHT22;9518;51.720;14.384;2023-12-29T08:00:10;8.50;1.00
18779;DHT22;9518;51.720;14.384;2023-12-29T08:02:38;8.40;1.00
18779;DHT22;9518;51.720;14.384;2023-12-29T08:05:05;8.50;1.00
18779;DHT22;9518;51.720;14.384;2023-12-29T08:07:35;8.50;1.00
18779;DHT22;9518;51.720;14.384;2023-12-29T08:10:04;8.50;1.00
18779;DHT22;9518;51.720;14.384;2023-12-29T08:12:32;8.50;1.00
18779;DHT22;9518;51.720;14.384;2023-12-29T08:15:00;8.50;1.00
18779;DHT22;9518;51.720;14.384;2023-12-29T08:17:27;8.50;1.00
18779;DHT22;9518;51.720;14.384;2023-12-29T08:19:54;8.50;1.00
18779;DHT22;9518;51.720;14.384;2023-12-29T08:22:22;8.60;1.00
18779;DHT22;9518;51.720;14.384;2023-12-29T08:24:50;8.60;1.00
18779;DHT22;9518;51.720;14.384;2023-12-29T08:27:23;8.60;1.00
18779;DHT22;9518;51.720;14.384;2023-12-29T08:29:51;8.60;1.00
18779;DHT22;9518;51.720;14.384;2023-12-29T08:32:19;8.60;1.00
18779;DHT22;9518;51.720;14.384;2023-12-29T08:34:46;8.60;1.00
18779;DHT22;9518;51.720;14.384;2023-12-29T08:37:14;8.70;1.00
18779;DHT22;9518;51.720;14.384;2023-12-29T08:39:45;8.60;1.00
18779;DHT22;9518;51.720;14.384;2023-12-29T08:42:15;8.80;1.00
18779;DHT22;9518;51.720;14.384;2023-12-29T08:44:42;8.80;1.00
18779;DHT22;9518;51.720;14.384;2023-12-29T08:47:10;8.80;1.00
18779;DHT22;9518;51.720;14.384;2023-12-29T08:49:39;8.80;1.00
18779;DHT22;9518;51.720;14.384;2023-12-29T08:52:07;8.90;1.00
18779;DHT22;9518;51.720;14.384;2023-12-29T08:54:35;9.00;1.00
18779;DHT22;9518;51.720;14.384;2023-12-29T08:57:03;9.00;1.00
18779;DHT22;9518;51.720;14.384;2023-12-29T08:59:35;8.90;1.00
18779;DHT22;9518;51.720;14.384;2023-12-29T09:02:02;9.00;1.00
18779;DHT22;9518;51.720;14.384;2023-12-29T09:04:31;9.10;1.00
18779;DHT22;9518;51.720;14.384;2023-12-29T09:06:58;9.00;1.00
18779;DHT22;9518;51.720;14.384;2023-12-29T09:09:25;9.10;1.00
18779;DHT22;9518;51.720;14.384;2023-12-29T09:11:52;9.30;1.00
18779;DHT22;9518;51.720;14.384;2023-12-29T09:14:19;9.30;1.00
18779;DHT22;9518;51.720;14.384;2023-12-29T09:16:47;9.40;1.00
18779;DHT22;9518;51.720;14.384;2023-12-29T09:19:16;9.50;1.00
18779;DHT22;9518;51.720;14.384;2023-12-29T09:21:43;9.50;1.00
18779;DHT22;9518;51.720;14.384;2023-12-29T09:24:10;9.60;1.00
18779;DHT22;9518;51.720;14.384;2023-12-29T09:26:37;9.60;1.00
18779;DHT22;9518;51.720;14.384;2023-12-29T09:29:04;9.70;1.00
18779;DHT22;9518;51.720;14.384;2023-12-29T09:31:31;9.70;1.00
18779;DHT22;9518;51.720;14.384;2023-12-29T09:34:00;9.80;1.00
18779;DHT22;9518;51.720;14.384;2023-12-29T09:36:28;9.90;1.00
18779;DHT22;9518;51.720;14.384;2023-12-29T09:38:56;10.00;1.00
18779;DHT22;9518;51.720;14.384;2023-12-29T09:41:24;10.10;1.00
18779;DHT22;9518;51.720;14.384;2023-12-29T09:43:54;10.10;1.00
18779;DHT22;9518;51.720;14.384;2023-12-29T09:46:21;10.10;1.00
18779;DHT22;9518;51.720;14.384;2023-12-29T09:48:51;10.20;1.00
18779;DHT22;9518;51.720;14.384;2023-12-29T09:51:21;10.40;1.00
18779;DHT22;9518;51.720;14.384;2023-12-29T09:53:50;10.50;1.00
18779;DHT22;9518;51.720;14.384;2023-12-29T09:56:19;10.50;1.00
18779;DHT22;9518;51.720;14.384;2023-12-29T09:58:47;10.50;1.00
18779;DHT22;9518;51.720;14.384;2023-12-29T10:01:17;10.50;1.00
18779;DHT22;9518;51.720;14.384;2023-12-29T10:03:46;10.40;1.00
18779;DHT22;9518;51.720;14.384;2023-12-29T10:06:16;10.40;1.00
18779;DHT22;9518;51.720;14.384;2023-12-29T10:08:50;10.40;1.00
18779;DHT22;9518;51.720;14.384;2023-12-29T10:11:18;10.50;1.00
18779;DHT22;9518;51.720;14.384;2023-12-29T10:13:47;10.60;1.00
18779;DHT22;9518;51.720;14.384;2023-12-29T10:16:24;10.70;1.00
18779;DHT22;9518;51.720;14.384;2023-12-29T10:19:00;10.80;1.00
18779;DHT22;9518;51.720;14.384;2023-12-29T10:21:40;10.80;1.00
18779;DHT22;9518;51.720;14.384;2023-12-29T10:24:15;10.90;1.00
18779;DHT22;9518;51.720;14.384;2023-12-29T10:26:44;11.10;1.00
18779;DHT22;9518;51.720;14.384;2023-12-29T10:29:12;11.10;1.00
18779;DHT22;9518;51.720;14.384;2023-12-29T10:31:39;11.00;1.00
18779;DHT22;9518;51.720;14.384;2023-12-29T10:34:19;10.90;1.00
18779;DHT22;9518;51.720;14.384;2023-12-29T10:36:49;10.80;1.00
18779;DHT22;9518;51.720;14.384;2023-12-29T10:39:18;10.90;1.00
18779;DHT22;9518;51.720;14.384;2023-12-29T10:41:45;10.90;1.00
18779;DHT22;9518;51.720;14.384;2023-12-29T10:47:20;10.80;1.00
18779;DHT22;9518;51.720;14.384;2023-12-29T10:49:58;10.80;1.00
18779;DHT22;9518;51.720;14.384;2023-12-29T10:52:25;10.70;1.00
18779;DHT22;9518;51.720;14.384;2023-12-29T10:55:04;10.60;1.00
18779;DHT22;9518;51.720;14.384;2023-12-29T10:57:31;10.50;1.00
18779;DHT22;9518;51.720;14.384;2023-12-29T10:59:59;10.50;1.00
18779;DHT22;9518;51.720;14.384;2023-12-29T11:02:27;10.50;1.00
18779;DHT22;9518;51.720;14.384;2023-12-29T11:05:05;10.50;1.00
18779;DHT22;9518;51.720;14.384;2023-12-29T11:07:34;10.50;1.00
18779;DHT22;9518;51.720;14.384;2023-12-29T11:10:06;10.60;1.00
18779;DHT22;9518;51.720;14.384;2023-12-29T11:12:35;10.60;1.00
18779;DHT22;9518;51.720;14.384;2023-12-29T11:15:06;10.50;1.00
18779;DHT22;9518;51.720;14.384;2023-12-29T11:17:34;10.40;1.00
18779;DHT22;9518;51.720;14.384;2023-12-29T11:20:03;10.30;1.00
18779;DHT22;9518;51.720;14.384;2023-12-29T11:22:33;10.30;1.00
18779;DHT22;9518;51.720;14.384;2023-12-29T11:25:01;10.30;1.00
18779;DHT22;9518;51.720;14.384;2023-12-29T11:27:30;10.30;1.00
18779;DHT22;9518;51.720;14.384;2023-12-29T11:29:58;10.30;1.00
18779;DHT22;9518;51.720;14.384;2023-12-29T11:32:37;10.30;1.00
18779;DHT22;9518;51.720;14.384;2023-12-29T11:35:13;10.30;1.00
18779;DHT22;9518;51.720;14.384;2023-12-29T11:37:58;10.30;1.00
18779;DHT22;9518;51.720;14.384;2023-12-29T11:40:30;10.20;1.00
18779;DHT22;9518;51.720;14.384;2023-12-29T11:43:05;10.30;1.00
18779;DHT22;9518;51.720;14.384;2023-12-29T11:45:35;10.40;1.00
18779;DHT22;9518;51.720;14.384;2023-12-29T11:48:03;10.40;1.00
18779;DHT22;9518;51.720;14.384;2023-12-29T11:50:34;10.40;1.00
18779;DHT22;9518;51.720;14.384;2023-12-29T11:53:03;10.40;1.00
18779;DHT22;9518;51.720;14.384;2023-12-29T11:55:33;10.50;1.00
18779;DHT22;9518;51.720;14.384;2023-12-29T11:58:02;10.60;1.00
18779;DHT22;9518;51.720;14.384;2023-12-29T12:00:46;10.60;1.00
18779;DHT22;9518;51.720;14.384;2023-12-29T12:03:15;10.80;1.00
18779;DHT22;9518;51.720;14.384;2023-12-29T12:05:47;10.90;1.00
18779;DHT22;9518;51.720;14.384;2023-12-29T12:08:27;10.90;1.00
18779;DHT22;9518;51.720;14.384;2023-12-29T12:13:46;11.00;1.00
18779;DHT22;9518;51.720;14.384;2023-12-29T12:16:48;11.00;1.00
18779;DHT22;9518;51.720;14.384;2023-12-29T12:19:16;11.00;1.00
18779;DHT22;9518;51.720;14.384;2023-12-29T12:21:47;10.90;1.00
18779;DHT22;9518;51.720;14.384;2023-12-29T12:24:18;10.90;1.00
18779;DHT22;9518;51.720;14.384;2023-12-29T12:26:45;11.00;1.00
18779;DHT22;9518;51.720;14.384;2023-12-29T12:29:14;11.10;1.00
18779;DHT22;9518;51.720;14.384;2023-12-29T12:31:55;11.20;1.00
18779;DHT22;9518;51.720;14.384;2023-12-29T12:34:22;11.40;1.00
18779;DHT22;9518;51.720;14.384;2023-12-29T12:36:49;11.40;1.00
18779;DHT22;9518;51.720;14.384;2023-12-29T12:39:17;11.60;1.00
18779;DHT22;9518;51.720;14.384;2023-12-29T12:41:45;11.70;1.00
18779;DHT22;9518;51.720;14.384;2023-12-29T12:44:16;11.70;1.00
18779;DHT22;9518;51.720;14.384;2023-12-29T12:46:50;11.70;1.00
18779;DHT22;9518;51.720;14.384;2023-12-29T12:49:19;11.70;1.00
18779;DHT22;9518;51.720;14.384;2023-12-29T12:51:46;11.70;1.00
18779;DHT22;9518;51.720;14.384;2023-12-29T12:54:18;11.70;1.00
18779;DHT22;9518;51.720;14.384;2023-12-29T12:56:46;11.60;1.00
18779;DHT22;9518;51.720;14.384;2023-12-29T12:59:16;11.60;1.00
18779;DHT22;9518;51.720;14.384;2023-12-29T13:01:43;11.60;1.00
18779;DHT22;9518;51.720;14.384;2023-12-29T13:04:12;11.50;1.00
18779;DHT22;9518;51.720;14.384;2023-12-29T13:06:41;11.50;1.00
18779;DHT22;9518;51.720;14.384;2023-12-29T13:09:10;11.40;1.00
18779;DHT22;9518;51.720;14.384;2023-12-29T13:11:38;11.40;1.00
18779;DHT22;9518;51.720;14.384;2023-12-29T13:14:06;11.30;1.00
18779;DHT22;9518;51.720;14.384;2023-12-29T13:16:36;11.30;1.00
18779;DHT22;9518;51.720;14.384;2023-12-29T13:19:17;11.30;1.00
18779;DHT22;9518;51.720;14.384;2023-12-29T13:21:48;11.40;1.00
18779;DHT22;9518;51.720;14.384;2023-12-29T13:24:17;11.40;1.00
18779;DHT22;9518;51.720;14.384;2023-12-29T13:26:47;11.40;1.00
18779;DHT22;9518;51.720;14.384;2023-12-29T13:29:18;11.30;1.00
18779;DHT22;9518;51.720;14.384;2023-12-29T13:31:49;11.30;1.00
18779;DHT22;9518;51.720;14.384;2023-12-29T13:34:21;11.40;1.00
18779;DHT22;9518;51.720;14.384;2023-12-29T13:36:52;11.40;1.00
18779;DHT22;9518;51.720;14.384;2023-12-29T13:39:31;11.30;1.00
18779;DHT22;9518;51.720;14.384;2023-12-29T13:42:05;11.40;1.00
18779;DHT22;9518;51.720;14.384;2023-12-29T13:44:34;11.40;1.00
18779;DHT22;9518;51.720;14.384;2023-12-29T13:47:03;11.30;1.00
18779;DHT22;9518;51.720;14.384;2023-12-29T13:49:31;11.40;1.00
18779;DHT22;9518;51.720;14.384;2023-12-29T13:52:02;11.30;1.00
18779;DHT22;9518;51.720;14.384;2023-12-29T13:54:29;11.30;1.00
18779;DHT22;9518;51.720;14.384;2023-12-29T13:56:57;11.30;1.00
18779;DHT22;9518;51.720;14.384;2023-12-29T13:59:29;11.30;1.00
18779;DHT22;9518;51.720;14.384;2023-12-29T14:02:19;11.30;1.00
18779;DHT22;9518;51.720;14.384;2023-12-29T14:04:47;11.30;1.00
18779;DHT22;9518;51.720;14.384;2023-12-29T14:07:19;11.30;1.00
18779;DHT22;9518;51.720;14.384;2023-12-29T14:09:54;11.20;1.00
18779;DHT22;9518;51.720;14.384;2023-12-29T14:12:24;11.20;1.00
18779;DHT22;9518;51.720;14.384;2023-12-29T14:14:52;11.20;1.00
18779;DHT22;9518;51.720;14.384;2023-12-29T14:17:22;11.20;1.00
18779;DHT22;9518;51.720;14.384;2023-12-29T14:19:49;11.20;1.00
18779;DHT22;9518;51.720;14.384;2023-12-29T14:22:22;11.20;1.00
18779;DHT22;9518;51.720;14.384;2023-12-29T14:25:05;11.20;1.00
18779;DHT22;9518;51.720;14.384;2023-12-29T14:27:33;11.10;1.00
18779;DHT22;9518;51.720;14.384;2023-12-29T14:30:00;11.10;1.00
18779;DHT22;9518;51.720;14.384;2023-12-29T14:32:29;11.10;1.00
18779;DHT22;9518;51.720;14.384;2023-12-29T14:34:57;11.10;1.00
18779;DHT22;9518;51.720;14.384;2023-12-29T14:37:24;11.10;1.00
18779;DHT22;9518;51.720;14.384;2023-12-29T14:39:51;11.00;1.00
18779;DHT22;9518;51.720;14.384;2023-12-29T14:42:20;11.00;1.00
18779;DHT22;9518;51.720;14.384;2023-12-29T14:44:48;11.00;1.00
18779;DHT22;9518;51.720;14.384;2023-12-29T14:47:18;11.00;1.00
18779;DHT22;9518;51.720;14.384;2023-12-29T14:49:46;10.90;1.00
18779;DHT22;9518;51.720;14.384;2023-12-29T14:52:13;10.90;1.00
18779;DHT22;9518;51.720;14.384;2023-12-29T14:54:42;10.90;1.00
18779;DHT22;9518;51.720;14.384;2023-12-29T14:57:09;10.80;1.00
18779;DHT22;9518;51.720;14.384;2023-12-29T14:59:36;10.80;1.00
18779;DHT22;9518;51.720;14.384;2023-12-29T15:02:07;10.80;1.00
18779;DHT22;9518;51.720;14.384;2023-12-29T15:04:39;10.80;1.00
18779;DHT22;9518;51.720;14.384;2023-12-29T15:07:08;10.80;1.00
18779;DHT22;9518;51.720;14.384;2023-12-29T15:09:35;10.80;1.00
18779;DHT22;9518;51.720;14.384;2023-12-29T15:12:02;10.80;1.00
18779;DHT22;9518;51.720;14.384;2023-12-29T15:14:30;10.80;1.00
18779;DHT22;9518;51.720;14.384;2023-12-29T15:16:58;10.70;1.00
18779;DHT22;9518;51.720;14.384;2023-12-29T15:19:25;10.60;1.00
18779;DHT22;9518;51.720;14.384;2023-12-29T15:21:52;10.50;1.00
18779;DHT22;9518;51.720;14.384;2023-12-29T15:24:21;10.60;1.00
18779;DHT22;9518;51.720;14.384;2023-12-29T15:26:47;10.70;1.00
18779;DHT22;9518;51.720;14.384;2023-12-29T15:29:15;10.70;1.00
18779;DHT22;9518;51.720;14.384;2023-12-29T15:31:42;10.80;1.00
18779;DHT22;9518;51.720;14.384;2023-12-29T15:34:12;10.70;1.00
18779;DHT22;9518;51.720;14.384;2023-12-29T15:36:42;10.60;1.00
18779;DHT22;9518;51.720;14.384;2023-12-29T15:39:09;10.60;1.00
18779;DHT22;9518;51.720;14.384;2023-12-29T15:41:37;10.60;1.00
18779;DHT22;9518;51.720;14.384;2023-12-29T15:44:06;10.60;1.00
18779;DHT22;9518;51.720;14.384;2023-12-29T15:49:56;10.70;1.00
18779;DHT22;9518;51.720;14.384;2023-12-29T15:52:24;10.70;1.00
18779;DHT22;9518;51.720;14.384;2023-12-29T15:54:55;10.70;1.00
18779;DHT22;9518;51.720;14.384;2023-12-29T15:57:23;10.60;1.00
18779;DHT22;9518;51.720;14.384;2023-12-29T15:59:51;10.60;1.00
18779;DHT22;9518;51.720;14.384;2023-12-29T16:02:20;10.70;1.00
18779;DHT22;9518;51.720;14.384;2023-12-29T16:04:47;10.80;1.00
18779;DHT22;9518;51.720;14.384;2023-12-29T16:07:15;10.70;1.00
18779;DHT22;9518;51.720;14.384;2023-12-29T16:09:43;10.60;1.00
18779;DHT22;9518;51.720;14.384;2023-12-29T16:12:12;10.60;1.00